Аэропорт: Орск. Орск

ICAO: UWOR

METAR:
2018/09/19 07:00
UWOR 190700Z 26008MPS 9999 -SHRA BKN041CB 14/13 Q1003 R25/190060 NOSIG RMK QFE729/0972
METAR:
2015/12/20 18:00
TAF UWOR 201700Z 2018/2103 15010G15MPS 2000 SN BLSN OVC007 
      TEMPO 2018/2024 19015MPS 1200 SN BLSN OVC005